sensor_id;sensor_type;location;lat;lon;timestamp;P1;durP1;ratioP1;P2;durP2;ratioP2
19016;SDS011;9641;51.494;6.670;2023-06-19T00:01:57;6.68;;;5.38;;
19016;SDS011;9641;51.494;6.670;2023-06-19T00:04:24;7.55;;;5.70;;
19016;SDS011;9641;51.494;6.670;2023-06-19T00:06:53;6.88;;;5.35;;
19016;SDS011;9641;51.494;6.670;2023-06-19T00:09:20;5.55;;;5.05;;
19016;SDS011;9641;51.494;6.670;2023-06-19T00:11:47;8.80;;;5.40;;
19016;SDS011;9641;51.494;6.670;2023-06-19T00:14:14;9.80;;;5.70;;
19016;SDS011;9641;51.494;6.670;2023-06-19T00:16:41;8.15;;;5.70;;
19016;SDS011;9641;51.494;6.670;2023-06-19T00:19:08;6.28;;;5.28;;
19016;SDS011;9641;51.494;6.670;2023-06-19T00:21:37;6.65;;;4.93;;
19016;SDS011;9641;51.494;6.670;2023-06-19T00:24:06;7.13;;;5.60;;
19016;SDS011;9641;51.494;6.670;2023-06-19T00:26:33;5.80;;;5.22;;
19016;SDS011;9641;51.494;6.670;2023-06-19T00:28:59;7.45;;;5.35;;
19016;SDS011;9641;51.494;6.670;2023-06-19T00:31:27;6.88;;;5.57;;
19016;SDS011;9641;51.494;6.670;2023-06-19T00:33:55;6.05;;;5.45;;
19016;SDS011;9641;51.494;6.670;2023-06-19T00:36:24;8.32;;;5.60;;
19016;SDS011;9641;51.494;6.670;2023-06-19T00:38:51;5.65;;;4.85;;
19016;SDS011;9641;51.494;6.670;2023-06-19T00:41:19;7.47;;;5.88;;
19016;SDS011;9641;51.494;6.670;2023-06-19T00:43:47;6.65;;;5.35;;
19016;SDS011;9641;51.494;6.670;2023-06-19T00:46:14;6.30;;;5.65;;
19016;SDS011;9641;51.494;6.670;2023-06-19T00:48:42;6.53;;;5.60;;
19016;SDS011;9641;51.494;6.670;2023-06-19T00:51:08;6.35;;;5.68;;
19016;SDS011;9641;51.494;6.670;2023-06-19T00:53:37;7.63;;;5.57;;
19016;SDS011;9641;51.494;6.670;2023-06-19T00:56:04;7.60;;;5.60;;
19016;SDS011;9641;51.494;6.670;2023-06-19T00:58:33;8.88;;;5.70;;
19016;SDS011;9641;51.494;6.670;2023-06-19T01:01:00;7.63;;;5.35;;
19016;SDS011;9641;51.494;6.670;2023-06-19T01:03:27;6.80;;;5.57;;
19016;SDS011;9641;51.494;6.670;2023-06-19T01:05:54;5.80;;;4.75;;
19016;SDS011;9641;51.494;6.670;2023-06-19T01:08:28;7.30;;;5.22;;
19016;SDS011;9641;51.494;6.670;2023-06-19T01:11:07;7.55;;;5.00;;
19016;SDS011;9641;51.494;6.670;2023-06-19T01:13:41;6.25;;;5.65;;
19016;SDS011;9641;51.494;6.670;2023-06-19T01:16:12;5.95;;;5.15;;
19016;SDS011;9641;51.494;6.670;2023-06-19T01:18:41;6.50;;;4.90;;
19016;SDS011;9641;51.494;6.670;2023-06-19T01:21:10;5.30;;;4.78;;
19016;SDS011;9641;51.494;6.670;2023-06-19T01:23:39;5.55;;;4.93;;
19016;SDS011;9641;51.494;6.670;2023-06-19T01:26:06;5.43;;;4.93;;
19016;SDS011;9641;51.494;6.670;2023-06-19T01:28:33;5.57;;;5.15;;
19016;SDS011;9641;51.494;6.670;2023-06-19T01:31:02;6.10;;;5.50;;
19016;SDS011;9641;51.494;6.670;2023-06-19T01:33:31;6.63;;;5.70;;
19016;SDS011;9641;51.494;6.670;2023-06-19T01:35:59;7.15;;;5.85;;
19016;SDS011;9641;51.494;6.670;2023-06-19T01:38:28;6.75;;;5.35;;
19016;SDS011;9641;51.494;6.670;2023-06-19T01:40:57;7.38;;;5.47;;
19016;SDS011;9641;51.494;6.670;2023-06-19T01:43:25;5.75;;;5.22;;
19016;SDS011;9641;51.494;6.670;2023-06-19T01:45:53;5.82;;;5.22;;
19016;SDS011;9641;51.494;6.670;2023-06-19T01:48:21;6.30;;;5.30;;
19016;SDS011;9641;51.494;6.670;2023-06-19T01:50:48;6.40;;;5.28;;
19016;SDS011;9641;51.494;6.670;2023-06-19T01:53:15;5.93;;;5.43;;
19016;SDS011;9641;51.494;6.670;2023-06-19T01:55:45;5.60;;;5.10;;
19016;SDS011;9641;51.494;6.670;2023-06-19T01:58:14;6.35;;;5.53;;
19016;SDS011;9641;51.494;6.670;2023-06-19T02:00:41;7.53;;;5.88;;
19016;SDS011;9641;51.494;6.670;2023-06-19T02:03:08;7.55;;;5.10;;
19016;SDS011;9641;51.494;6.670;2023-06-19T02:05:35;6.45;;;5.03;;
19016;SDS011;9641;51.494;6.670;2023-06-19T02:08:04;8.00;;;6.10;;
19016;SDS011;9641;51.494;6.670;2023-06-19T02:10:35;7.03;;;5.55;;
19016;SDS011;9641;51.494;6.670;2023-06-19T02:13:02;6.45;;;5.85;;
19016;SDS011;9641;51.494;6.670;2023-06-19T02:15:30;7.22;;;5.35;;
19016;SDS011;9641;51.494;6.670;2023-06-19T02:17:57;6.15;;;5.55;;
19016;SDS011;9641;51.494;6.670;2023-06-19T02:20:24;5.85;;;5.20;;
19016;SDS011;9641;51.494;6.670;2023-06-19T02:22:55;6.10;;;5.50;;
19016;SDS011;9641;51.494;6.670;2023-06-19T02:25:22;7.93;;;5.55;;
19016;SDS011;9641;51.494;6.670;2023-06-19T02:27:48;7.15;;;5.65;;
19016;SDS011;9641;51.494;6.670;2023-06-19T02:30:15;7.93;;;5.43;;
19016;SDS011;9641;51.494;6.670;2023-06-19T02:32:43;6.88;;;5.57;;
19016;SDS011;9641;51.494;6.670;2023-06-19T02:35:10;6.45;;;4.90;;
19016;SDS011;9641;51.494;6.670;2023-06-19T02:37:38;5.75;;;5.05;;
19016;SDS011;9641;51.494;6.670;2023-06-19T02:40:06;6.13;;;4.93;;
19016;SDS011;9641;51.494;6.670;2023-06-19T02:42:35;5.07;;;4.57;;
19016;SDS011;9641;51.494;6.670;2023-06-19T02:45:02;4.68;;;4.28;;
19016;SDS011;9641;51.494;6.670;2023-06-19T02:47:30;6.78;;;5.15;;
19016;SDS011;9641;51.494;6.670;2023-06-19T02:49:58;6.57;;;5.32;;
19016;SDS011;9641;51.494;6.670;2023-06-19T02:52:26;5.20;;;4.70;;
19016;SDS011;9641;51.494;6.670;2023-06-19T02:54:53;5.28;;;4.63;;
19016;SDS011;9641;51.494;6.670;2023-06-19T02:57:20;5.85;;;4.57;;
19016;SDS011;9641;51.494;6.670;2023-06-19T02:59:47;6.80;;;4.50;;
19016;SDS011;9641;51.494;6.670;2023-06-19T03:02:14;5.60;;;5.05;;
19016;SDS011;9641;51.494;6.670;2023-06-19T03:04:42;5.18;;;4.40;;
19016;SDS011;9641;51.494;6.670;2023-06-19T03:07:11;4.93;;;4.45;;
19016;SDS011;9641;51.494;6.670;2023-06-19T03:09:39;5.43;;;4.35;;
19016;SDS011;9641;51.494;6.670;2023-06-19T03:12:07;6.00;;;5.10;;
19016;SDS011;9641;51.494;6.670;2023-06-19T03:14:36;5.85;;;4.53;;
19016;SDS011;9641;51.494;6.670;2023-06-19T03:17:03;5.88;;;4.63;;
19016;SDS011;9641;51.494;6.670;2023-06-19T03:19:31;5.88;;;4.35;;
19016;SDS011;9641;51.494;6.670;2023-06-19T03:21:59;5.28;;;4.20;;
19016;SDS011;9641;51.494;6.670;2023-06-19T03:24:27;5.43;;;4.93;;
19016;SDS011;9641;51.494;6.670;2023-06-19T03:27:06;6.72;;;4.40;;
19016;SDS011;9641;51.494;6.670;2023-06-19T03:29:33;6.72;;;4.50;;
19016;SDS011;9641;51.494;6.670;2023-06-19T03:32:05;4.90;;;4.38;;
19016;SDS011;9641;51.494;6.670;2023-06-19T03:34:33;7.25;;;4.13;;
19016;SDS011;9641;51.494;6.670;2023-06-19T03:37:05;4.03;;;3.53;;
19016;SDS011;9641;51.494;6.670;2023-06-19T03:39:35;4.90;;;4.38;;
19016;SDS011;9641;51.494;6.670;2023-06-19T03:42:06;3.83;;;3.53;;
19016;SDS011;9641;51.494;6.670;2023-06-19T03:44:34;4.60;;;3.65;;
19016;SDS011;9641;51.494;6.670;2023-06-19T03:47:01;3.72;;;3.40;;
19016;SDS011;9641;51.494;6.670;2023-06-19T03:49:29;3.78;;;3.40;;
19016;SDS011;9641;51.494;6.670;2023-06-19T03:51:56;4.28;;;3.40;;
19016;SDS011;9641;51.494;6.670;2023-06-19T03:54:23;6.50;;;4.20;;
19016;SDS011;9641;51.494;6.670;2023-06-19T03:56:52;4.53;;;3.70;;
19016;SDS011;9641;51.494;6.670;2023-06-19T03:59:20;4.43;;;3.63;;
19016;SDS011;9641;51.494;6.670;2023-06-19T04:01:47;3.83;;;3.10;;
19016;SDS011;9641;51.494;6.670;2023-06-19T04:04:15;4.28;;;3.88;;
19016;SDS011;9641;51.494;6.670;2023-06-19T04:06:42;4.55;;;3.58;;
19016;SDS011;9641;51.494;6.670;2023-06-19T04:09:09;4.03;;;3.63;;
19016;SDS011;9641;51.494;6.670;2023-06-19T04:11:36;3.90;;;3.45;;
19016;SDS011;9641;51.494;6.670;2023-06-19T04:14:04;3.40;;;3.10;;
19016;SDS011;9641;51.494;6.670;2023-06-19T04:16:31;3.70;;;3.40;;
19016;SDS011;9641;51.494;6.670;2023-06-19T04:18:58;3.33;;;3.03;;
19016;SDS011;9641;51.494;6.670;2023-06-19T04:21:25;3.85;;;3.33;;
19016;SDS011;9641;51.494;6.670;2023-06-19T04:23:52;5.35;;;3.00;;
19016;SDS011;9641;51.494;6.670;2023-06-19T04:26:19;4.37;;;3.17;;
19016;SDS011;9641;51.494;6.670;2023-06-19T04:28:47;5.10;;;3.10;;
19016;SDS011;9641;51.494;6.670;2023-06-19T04:31:15;3.00;;;2.72;;
19016;SDS011;9641;51.494;6.670;2023-06-19T04:33:43;3.05;;;2.70;;
19016;SDS011;9641;51.494;6.670;2023-06-19T04:36:10;3.13;;;2.75;;
19016;SDS011;9641;51.494;6.670;2023-06-19T04:38:37;3.80;;;3.08;;
19016;SDS011;9641;51.494;6.670;2023-06-19T04:41:03;2.67;;;2.47;;
19016;SDS011;9641;51.494;6.670;2023-06-19T04:43:30;3.22;;;2.92;;
19016;SDS011;9641;51.494;6.670;2023-06-19T04:45:59;4.88;;;2.75;;
19016;SDS011;9641;51.494;6.670;2023-06-19T04:48:27;4.10;;;2.70;;
19016;SDS011;9641;51.494;6.670;2023-06-19T04:50:54;3.78;;;3.10;;
19016;SDS011;9641;51.494;6.670;2023-06-19T04:53:22;2.85;;;2.60;;
19016;SDS011;9641;51.494;6.670;2023-06-19T04:55:48;3.08;;;2.70;;
19016;SDS011;9641;51.494;6.670;2023-06-19T04:58:19;4.25;;;2.75;;
19016;SDS011;9641;51.494;6.670;2023-06-19T05:00:46;3.25;;;2.80;;
19016;SDS011;9641;51.494;6.670;2023-06-19T05:03:16;3.55;;;2.80;;
19016;SDS011;9641;51.494;6.670;2023-06-19T05:05:44;3.78;;;2.90;;
19016;SDS011;9641;51.494;6.670;2023-06-19T05:08:12;4.05;;;2.83;;
19016;SDS011;9641;51.494;6.670;2023-06-19T05:10:39;4.43;;;3.08;;
19016;SDS011;9641;51.494;6.670;2023-06-19T05:13:06;4.97;;;2.78;;
19016;SDS011;9641;51.494;6.670;2023-06-19T05:15:33;3.97;;;2.55;;
19016;SDS011;9641;51.494;6.670;2023-06-19T05:18:00;5.35;;;3.15;;
19016;SDS011;9641;51.494;6.670;2023-06-19T05:20:26;3.63;;;3.03;;
19016;SDS011;9641;51.494;6.670;2023-06-19T05:22:55;3.30;;;3.00;;
19016;SDS011;9641;51.494;6.670;2023-06-19T05:25:21;3.95;;;2.83;;
19016;SDS011;9641;51.494;6.670;2023-06-19T05:27:48;4.03;;;2.90;;
19016;SDS011;9641;51.494;6.670;2023-06-19T05:30:15;4.68;;;3.30;;
19016;SDS011;9641;51.494;6.670;2023-06-19T05:32:42;4.65;;;3.25;;
19016;SDS011;9641;51.494;6.670;2023-06-19T05:35:09;3.33;;;2.80;;
19016;SDS011;9641;51.494;6.670;2023-06-19T05:37:36;3.13;;;2.83;;
19016;SDS011;9641;51.494;6.670;2023-06-19T05:40:06;5.78;;;3.35;;
19016;SDS011;9641;51.494;6.670;2023-06-19T05:42:34;3.80;;;3.10;;
19016;SDS011;9641;51.494;6.670;2023-06-19T05:45:01;3.13;;;2.83;;
19016;SDS011;9641;51.494;6.670;2023-06-19T05:47:28;3.67;;;3.30;;
19016;SDS011;9641;51.494;6.670;2023-06-19T05:49:55;4.57;;;3.60;;
19016;SDS011;9641;51.494;6.670;2023-06-19T05:52:22;4.38;;;3.45;;
19016;SDS011;9641;51.494;6.670;2023-06-19T05:54:49;4.32;;;3.22;;
19016;SDS011;9641;51.494;6.670;2023-06-19T05:57:18;5.65;;;3.70;;
19016;SDS011;9641;51.494;6.670;2023-06-19T05:59:46;4.57;;;3.50;;
19016;SDS011;9641;51.494;6.670;2023-06-19T06:02:13;3.45;;;3.15;;
19016;SDS011;9641;51.494;6.670;2023-06-19T06:04:40;5.10;;;3.33;;
19016;SDS011;9641;51.494;6.670;2023-06-19T06:07:07;4.38;;;3.45;;
19016;SDS011;9641;51.494;6.670;2023-06-19T06:09:34;6.40;;;3.08;;
19016;SDS011;9641;51.494;6.670;2023-06-19T06:12:02;5.30;;;3.65;;
19016;SDS011;9641;51.494;6.670;2023-06-19T06:14:30;4.63;;;3.70;;
19016;SDS011;9641;51.494;6.670;2023-06-19T06:16:57;3.60;;;3.30;;
19016;SDS011;9641;51.494;6.670;2023-06-19T06:19:24;5.38;;;3.30;;
19016;SDS011;9641;51.494;6.670;2023-06-19T06:21:51;6.53;;;3.30;;
19016;SDS011;9641;51.494;6.670;2023-06-19T06:24:18;5.22;;;3.20;;
19016;SDS011;9641;51.494;6.670;2023-06-19T06:26:45;5.07;;;3.05;;
19016;SDS011;9641;51.494;6.670;2023-06-19T06:29:11;3.90;;;3.55;;
19016;SDS011;9641;51.494;6.670;2023-06-19T06:31:40;3.78;;;3.00;;
19016;SDS011;9641;51.494;6.670;2023-06-19T06:34:06;8.95;;;3.10;;
19016;SDS011;9641;51.494;6.670;2023-06-19T06:36:33;5.97;;;3.45;;
19016;SDS011;9641;51.494;6.670;2023-06-19T06:39:00;4.53;;;3.70;;
19016;SDS011;9641;51.494;6.670;2023-06-19T06:41:27;7.15;;;3.28;;
19016;SDS011;9641;51.494;6.670;2023-06-19T06:43:54;6.03;;;3.70;;
19016;SDS011;9641;51.494;6.670;2023-06-19T06:46:21;4.57;;;3.25;;
19016;SDS011;9641;51.494;6.670;2023-06-19T06:48:50;3.28;;;2.90;;
19016;SDS011;9641;51.494;6.670;2023-06-19T06:51:17;5.22;;;3.40;;
19016;SDS011;9641;51.494;6.670;2023-06-19T06:53:43;3.72;;;3.25;;
19016;SDS011;9641;51.494;6.670;2023-06-19T06:56:10;3.30;;;3.00;;
19016;SDS011;9641;51.494;6.670;2023-06-19T06:58:37;4.65;;;2.92;;
19016;SDS011;9641;51.494;6.670;2023-06-19T07:01:05;4.72;;;2.90;;
19016;SDS011;9641;51.494;6.670;2023-06-19T07:03:32;6.03;;;3.13;;
19016;SDS011;9641;51.494;6.670;2023-06-19T07:06:00;4.03;;;3.40;;
19016;SDS011;9641;51.494;6.670;2023-06-19T07:08:27;7.05;;;2.90;;
19016;SDS011;9641;51.494;6.670;2023-06-19T07:10:54;5.50;;;3.28;;
19016;SDS011;9641;51.494;6.670;2023-06-19T07:13:21;3.72;;;2.90;;
19016;SDS011;9641;51.494;6.670;2023-06-19T07:15:49;2.40;;;2.30;;
19016;SDS011;9641;51.494;6.670;2023-06-19T07:18:16;3.88;;;3.00;;
19016;SDS011;9641;51.494;6.670;2023-06-19T07:20:42;3.13;;;2.90;;
19016;SDS011;9641;51.494;6.670;2023-06-19T07:23:11;3.00;;;2.70;;
19016;SDS011;9641;51.494;6.670;2023-06-19T07:25:37;2.95;;;2.70;;
19016;SDS011;9641;51.494;6.670;2023-06-19T07:28:04;4.68;;;3.40;;
19016;SDS011;9641;51.494;6.670;2023-06-19T07:30:31;3.97;;;3.15;;
19016;SDS011;9641;51.494;6.670;2023-06-19T07:32:58;3.42;;;2.80;;
19016;SDS011;9641;51.494;6.670;2023-06-19T07:35:25;3.55;;;3.00;;
19016;SDS011;9641;51.494;6.670;2023-06-19T07:37:52;5.72;;;3.67;;
19016;SDS011;9641;51.494;6.670;2023-06-19T07:40:20;3.45;;;3.13;;
19016;SDS011;9641;51.494;6.670;2023-06-19T07:42:47;3.78;;;3.30;;
19016;SDS011;9641;51.494;6.670;2023-06-19T07:45:14;4.07;;;3.67;;
19016;SDS011;9641;51.494;6.670;2023-06-19T07:47:42;7.05;;;3.08;;
19016;SDS011;9641;51.494;6.670;2023-06-19T07:50:09;4.30;;;3.28;;
19016;SDS011;9641;51.494;6.670;2023-06-19T07:52:36;4.18;;;3.15;;
19016;SDS011;9641;51.494;6.670;2023-06-19T07:55:03;4.07;;;3.40;;
19016;SDS011;9641;51.494;6.670;2023-06-19T07:57:31;5.15;;;3.42;;
19016;SDS011;9641;51.494;6.670;2023-06-19T07:59:58;5.10;;;3.38;;
19016;SDS011;9641;51.494;6.670;2023-06-19T08:02:25;3.35;;;3.05;;
19016;SDS011;9641;51.494;6.670;2023-06-19T08:04:52;3.30;;;3.10;;
19016;SDS011;9641;51.494;6.670;2023-06-19T08:07:19;4.65;;;3.20;;
19016;SDS011;9641;51.494;6.670;2023-06-19T08:09:46;3.33;;;3.03;;
19016;SDS011;9641;51.494;6.670;2023-06-19T08:12:13;4.40;;;3.47;;
19016;SDS011;9641;51.494;6.670;2023-06-19T08:14:42;2.63;;;2.42;;
19016;SDS011;9641;51.494;6.670;2023-06-19T08:17:08;2.90;;;2.70;;
19016;SDS011;9641;51.494;6.670;2023-06-19T08:19:35;2.90;;;2.70;;
19016;SDS011;9641;51.494;6.670;2023-06-19T08:22:04;4.38;;;2.70;;
19016;SDS011;9641;51.494;6.670;2023-06-19T08:24:31;2.90;;;2.58;;
19016;SDS011;9641;51.494;6.670;2023-06-19T08:26:58;3.45;;;2.42;;
19016;SDS011;9641;51.494;6.670;2023-06-19T08:29:25;4.15;;;2.40;;
19016;SDS011;9641;51.494;6.670;2023-06-19T08:31:53;4.72;;;2.17;;
19016;SDS011;9641;51.494;6.670;2023-06-19T08:34:20;3.13;;;2.20;;
19016;SDS011;9641;51.494;6.670;2023-06-19T08:36:46;3.45;;;2.30;;
19016;SDS011;9641;51.494;6.670;2023-06-19T08:39:13;3.58;;;2.50;;
19016;SDS011;9641;51.494;6.670;2023-06-19T08:41:40;3.20;;;2.90;;
19016;SDS011;9641;51.494;6.670;2023-06-19T08:44:08;3.38;;;2.30;;
19016;SDS011;9641;51.494;6.670;2023-06-19T08:46:35;2.42;;;2.20;;
19016;SDS011;9641;51.494;6.670;2023-06-19T08:49:04;4.22;;;2.58;;
19016;SDS011;9641;51.494;6.670;2023-06-19T08:51:32;2.78;;;2.50;;
19016;SDS011;9641;51.494;6.670;2023-06-19T08:54:03;3.63;;;2.60;;
19016;SDS011;9641;51.494;6.670;2023-06-19T08:56:32;5.15;;;2.67;;
19016;SDS011;9641;51.494;6.670;2023-06-19T08:59:09;2.97;;;2.60;;
19016;SDS011;9641;51.494;6.670;2023-06-19T09:01:46;2.50;;;2.30;;
19016;SDS011;9641;51.494;6.670;2023-06-19T09:04:18;3.97;;;3.25;;
19016;SDS011;9641;51.494;6.670;2023-06-19T09:06:49;5.15;;;2.42;;
19016;SDS011;9641;51.494;6.670;2023-06-19T09:09:18;4.75;;;3.03;;
19016;SDS011;9641;51.494;6.670;2023-06-19T09:11:56;3.78;;;2.45;;
19016;SDS011;9641;51.494;6.670;2023-06-19T09:14:24;3.08;;;2.78;;
19016;SDS011;9641;51.494;6.670;2023-06-19T09:16:58;5.00;;;2.80;;
19016;SDS011;9641;51.494;6.670;2023-06-19T09:19:26;4.50;;;3.05;;
19016;SDS011;9641;51.494;6.670;2023-06-19T09:21:53;3.60;;;3.30;;
19016;SDS011;9641;51.494;6.670;2023-06-19T09:24:32;4.47;;;3.03;;
19016;SDS011;9641;51.494;6.670;2023-06-19T09:27:05;3.28;;;2.97;;
19016;SDS011;9641;51.494;6.670;2023-06-19T09:29:35;5.25;;;3.08;;
19016;SDS011;9641;51.494;6.670;2023-06-19T09:32:13;4.50;;;3.35;;
19016;SDS011;9641;51.494;6.670;2023-06-19T09:34:42;4.80;;;3.30;;
19016;SDS011;9641;51.494;6.670;2023-06-19T09:37:09;3.67;;;3.20;;
19016;SDS011;9641;51.494;6.670;2023-06-19T09:39:36;6.03;;;3.45;;
19016;SDS011;9641;51.494;6.670;2023-06-19T09:42:05;3.88;;;3.15;;
19016;SDS011;9641;51.494;6.670;2023-06-19T09:44:39;3.92;;;3.53;;
19016;SDS011;9641;51.494;6.670;2023-06-19T09:47:14;7.95;;;3.95;;
19016;SDS011;9641;51.494;6.670;2023-06-19T09:49:47;3.70;;;3.40;;
19016;SDS011;9641;51.494;6.670;2023-06-19T09:52:16;8.05;;;4.20;;
19016;SDS011;9641;51.494;6.670;2023-06-19T09:54:44;5.97;;;3.67;;
19016;SDS011;9641;51.494;6.670;2023-06-19T09:57:12;4.25;;;3.17;;
19016;SDS011;9641;51.494;6.670;2023-06-19T09:59:39;4.22;;;3.83;;
19016;SDS011;9641;51.494;6.670;2023-06-19T10:02:08;5.53;;;3.95;;
19016;SDS011;9641;51.494;6.670;2023-06-19T10:04:43;5.45;;;3.60;;
19016;SDS011;9641;51.494;6.670;2023-06-19T10:07:19;5.68;;;4.00;;
19016;SDS011;9641;51.494;6.670;2023-06-19T10:09:54;5.20;;;4.22;;
19016;SDS011;9641;51.494;6.670;2023-06-19T10:12:22;5.40;;;3.78;;
19016;SDS011;9641;51.494;6.670;2023-06-19T10:15:07;4.25;;;3.88;;
19016;SDS011;9641;51.494;6.670;2023-06-19T10:17:42;5.18;;;4.38;;
19016;SDS011;9641;51.494;6.670;2023-06-19T10:20:20;5.47;;;3.60;;
19016;SDS011;9641;51.494;6.670;2023-06-19T10:22:56;6.60;;;4.47;;
19016;SDS011;9641;51.494;6.670;2023-06-19T10:25:28;5.60;;;4.60;;
19016;SDS011;9641;51.494;6.670;2023-06-19T10:27:57;5.90;;;4.00;;
19016;SDS011;9641;51.494;6.670;2023-06-19T10:30:24;5.03;;;4.07;;
19016;SDS011;9641;51.494;6.670;2023-06-19T10:32:51;4.88;;;4.35;;
19016;SDS011;9641;51.494;6.670;2023-06-19T10:35:19;4.13;;;3.72;;
19016;SDS011;9641;51.494;6.670;2023-06-19T10:37:49;4.88;;;4.13;;
19016;SDS011;9641;51.494;6.670;2023-06-19T10:40:17;4.70;;;4.15;;
19016;SDS011;9641;51.494;6.670;2023-06-19T10:42:44;4.95;;;4.45;;
19016;SDS011;9641;51.494;6.670;2023-06-19T10:45:12;4.63;;;4.10;;
19016;SDS011;9641;51.494;6.670;2023-06-19T10:47:42;6.10;;;4.10;;
19016;SDS011;9641;51.494;6.670;2023-06-19T10:50:10;4.40;;;4.00;;
19016;SDS011;9641;51.494;6.670;2023-06-19T10:52:41;7.68;;;4.80;;
19016;SDS011;9641;51.494;6.670;2023-06-19T10:55:09;8.43;;;4.57;;
19016;SDS011;9641;51.494;6.670;2023-06-19T10:57:38;5.18;;;4.18;;
19016;SDS011;9641;51.494;6.670;2023-06-19T11:00:06;5.70;;;4.55;;
19016;SDS011;9641;51.494;6.670;2023-06-19T11:02:38;6.78;;;4.63;;
19016;SDS011;9641;51.494;6.670;2023-06-19T11:05:08;5.28;;;4.78;;
19016;SDS011;9641;51.494;6.670;2023-06-19T11:07:36;6.60;;;4.80;;
19016;SDS011;9641;51.494;6.670;2023-06-19T11:10:04;5.57;;;4.15;;
19016;SDS011;9641;51.494;6.670;2023-06-19T11:12:32;6.30;;;4.43;;
19016;SDS011;9641;51.494;6.670;2023-06-19T11:15:04;5.03;;;4.53;;
19016;SDS011;9641;51.494;6.670;2023-06-19T11:17:32;5.15;;;4.63;;
19016;SDS011;9641;51.494;6.670;2023-06-19T11:19:59;5.32;;;4.40;;
19016;SDS011;9641;51.494;6.670;2023-06-19T11:22:36;5.75;;;4.03;;
19016;SDS011;9641;51.494;6.670;2023-06-19T11:25:04;5.57;;;4.03;;
19016;SDS011;9641;51.494;6.670;2023-06-19T11:27:32;4.93;;;4.00;;
19016;SDS011;9641;51.494;6.670;2023-06-19T11:30:00;4.68;;;4.22;;
19016;SDS011;9641;51.494;6.670;2023-06-19T11:32:31;5.05;;;4.20;;
19016;SDS011;9641;51.494;6.670;2023-06-19T11:35:04;4.78;;;4.30;;
19016;SDS011;9641;51.494;6.670;2023-06-19T11:37:33;6.40;;;4.00;;
19016;SDS011;9641;51.494;6.670;2023-06-19T11:40:02;4.05;;;3.72;;
19016;SDS011;9641;51.494;6.670;2023-06-19T11:42:44;5.57;;;4.10;;
19016;SDS011;9641;51.494;6.670;2023-06-19T11:45:14;5.22;;;4.35;;
19016;SDS011;9641;51.494;6.670;2023-06-19T11:47:44;5.38;;;4.15;;
19016;SDS011;9641;51.494;6.670;2023-06-19T11:50:12;4.88;;;4.07;;
19016;SDS011;9641;51.494;6.670;2023-06-19T11:55:09;6.13;;;4.05;;
19016;SDS011;9641;51.494;6.670;2023-06-19T11:57:36;7.25;;;4.90;;
19016;SDS011;9641;51.494;6.670;2023-06-19T12:00:11;5.70;;;3.75;;
19016;SDS011;9641;51.494;6.670;2023-06-19T12:02:43;5.20;;;4.07;;
19016;SDS011;9641;51.494;6.670;2023-06-19T12:05:12;5.80;;;4.20;;
19016;SDS011;9641;51.494;6.670;2023-06-19T12:07:40;6.40;;;4.00;;
19016;SDS011;9641;51.494;6.670;2023-06-19T12:10:07;5.82;;;4.38;;
19016;SDS011;9641;51.494;6.670;2023-06-19T12:12:37;5.38;;;4.40;;
19016;SDS011;9641;51.494;6.670;2023-06-19T12:15:04;5.40;;;4.80;;
19016;SDS011;9641;51.494;6.670;2023-06-19T12:17:32;6.78;;;4.63;;
19016;SDS011;9641;51.494;6.670;2023-06-19T12:20:00;4.50;;;4.10;;
19016;SDS011;9641;51.494;6.670;2023-06-19T12:22:30;4.25;;;3.85;;
19016;SDS011;9641;51.494;6.670;2023-06-19T12:24:57;4.72;;;4.32;;
19016;SDS011;9641;51.494;6.670;2023-06-19T12:27:24;4.75;;;3.78;;
19016;SDS011;9641;51.494;6.670;2023-06-19T12:29:51;4.97;;;4.18;;
19016;SDS011;9641;51.494;6.670;2023-06-19T12:32:18;5.53;;;4.30;;
19016;SDS011;9641;51.494;6.670;2023-06-19T12:34:46;4.70;;;4.20;;
19016;SDS011;9641;51.494;6.670;2023-06-19T12:37:15;6.68;;;4.50;;
19016;SDS011;9641;51.494;6.670;2023-06-19T12:39:42;5.85;;;3.97;;
19016;SDS011;9641;51.494;6.670;2023-06-19T12:42:09;5.10;;;3.83;;
19016;SDS011;9641;51.494;6.670;2023-06-19T12:44:38;5.13;;;4.63;;
19016;SDS011;9641;51.494;6.670;2023-06-19T12:47:05;4.82;;;3.97;;
19016;SDS011;9641;51.494;6.670;2023-06-19T12:49:33;4.05;;;3.67;;
19016;SDS011;9641;51.494;6.670;2023-06-19T12:52:00;6.43;;;4.95;;
19016;SDS011;9641;51.494;6.670;2023-06-19T12:54:28;5.13;;;3.95;;
19016;SDS011;9641;51.494;6.670;2023-06-19T12:56:55;5.90;;;3.78;;
19016;SDS011;9641;51.494;6.670;2023-06-19T12:59:22;6.38;;;4.07;;
19016;SDS011;9641;51.494;6.670;2023-06-19T13:01:49;4.13;;;3.72;;
19016;SDS011;9641;51.494;6.670;2023-06-19T13:04:16;4.55;;;3.88;;
19016;SDS011;9641;51.494;6.670;2023-06-19T13:06:44;4.88;;;4.03;;
19016;SDS011;9641;51.494;6.670;2023-06-19T13:09:10;5.70;;;3.97;;
19016;SDS011;9641;51.494;6.670;2023-06-19T13:11:39;4.20;;;3.75;;
19016;SDS011;9641;51.494;6.670;2023-06-19T13:14:05;3.92;;;3.55;;
19016;SDS011;9641;51.494;6.670;2023-06-19T13:16:32;4.40;;;4.00;;
19016;SDS011;9641;51.494;6.670;2023-06-19T13:19:00;4.68;;;3.80;;
19016;SDS011;9641;51.494;6.670;2023-06-19T13:21:27;3.90;;;3.50;;
19016;SDS011;9641;51.494;6.670;2023-06-19T13:23:54;3.58;;;3.28;;
19016;SDS011;9641;51.494;6.670;2023-06-19T13:26:21;3.80;;;3.50;;
19016;SDS011;9641;51.494;6.670;2023-06-19T13:28:49;5.07;;;3.75;;
19016;SDS011;9641;51.494;6.670;2023-06-19T13:31:16;4.45;;;3.92;;
19016;SDS011;9641;51.494;6.670;2023-06-19T13:33:43;3.65;;;3.35;;
19016;SDS011;9641;51.494;6.670;2023-06-19T13:36:10;3.65;;;3.35;;
19016;SDS011;9641;51.494;6.670;2023-06-19T13:38:37;4.07;;;3.50;;
19016;SDS011;9641;51.494;6.670;2023-06-19T13:41:04;3.63;;;3.33;;
19016;SDS011;9641;51.494;6.670;2023-06-19T13:43:31;3.45;;;3.15;;
19016;SDS011;9641;51.494;6.670;2023-06-19T13:46:00;4.85;;;3.38;;
19016;SDS011;9641;51.494;6.670;2023-06-19T13:48:28;3.60;;;3.30;;
19016;SDS011;9641;51.494;6.670;2023-06-19T13:50:55;3.50;;;3.20;;
19016;SDS011;9641;51.494;6.670;2023-06-19T13:53:23;3.40;;;3.10;;
19016;SDS011;9641;51.494;6.670;2023-06-19T13:55:53;4.65;;;3.13;;
19016;SDS011;9641;51.494;6.670;2023-06-19T13:58:20;4.95;;;3.20;;
19016;SDS011;9641;51.494;6.670;2023-06-19T14:00:47;4.13;;;3.20;;
19016;SDS011;9641;51.494;6.670;2023-06-19T14:03:15;3.72;;;3.38;;
19016;SDS011;9641;51.494;6.670;2023-06-19T14:05:42;2.85;;;2.65;;
19016;SDS011;9641;51.494;6.670;2023-06-19T14:08:09;3.88;;;3.03;;
19016;SDS011;9641;51.494;6.670;2023-06-19T14:10:36;3.22;;;3.00;;
19016;SDS011;9641;51.494;6.670;2023-06-19T14:13:03;3.90;;;2.80;;
19016;SDS011;9641;51.494;6.670;2023-06-19T14:15:30;3.85;;;3.25;;
19016;SDS011;9641;51.494;6.670;2023-06-19T14:17:56;4.47;;;3.20;;
19016;SDS011;9641;51.494;6.670;2023-06-19T14:20:25;5.55;;;3.13;;
19016;SDS011;9641;51.494;6.670;2023-06-19T14:22:52;3.40;;;3.10;;
19016;SDS011;9641;51.494;6.670;2023-06-19T14:25:18;3.42;;;3.13;;
19016;SDS011;9641;51.494;6.670;2023-06-19T14:27:46;3.33;;;3.10;;
19016;SDS011;9641;51.494;6.670;2023-06-19T14:30:13;3.70;;;2.90;;
19016;SDS011;9641;51.494;6.670;2023-06-19T14:32:40;2.97;;;2.78;;
19016;SDS011;9641;51.494;6.670;2023-06-19T14:35:07;3.50;;;3.13;;
19016;SDS011;9641;51.494;6.670;2023-06-19T14:37:35;3.33;;;3.10;;
19016;SDS011;9641;51.494;6.670;2023-06-19T14:40:02;3.25;;;2.95;;
19016;SDS011;9641;51.494;6.670;2023-06-19T14:42:30;3.05;;;2.85;;
19016;SDS011;9641;51.494;6.670;2023-06-19T14:44:57;4.25;;;3.28;;
19016;SDS011;9641;51.494;6.670;2023-06-19T14:47:24;5.65;;;2.90;;
19016;SDS011;9641;51.494;6.670;2023-06-19T14:49:51;3.33;;;3.13;;
19016;SDS011;9641;51.494;6.670;2023-06-19T14:52:18;3.25;;;3.05;;
19016;SDS011;9641;51.494;6.670;2023-06-19T14:54:47;3.95;;;2.97;;
19016;SDS011;9641;51.494;6.670;2023-06-19T14:57:14;3.47;;;3.00;;
19016;SDS011;9641;51.494;6.670;2023-06-19T14:59:41;4.70;;;3.63;;
19016;SDS011;9641;51.494;6.670;2023-06-19T15:02:08;3.97;;;3.10;;
19016;SDS011;9641;51.494;6.670;2023-06-19T15:04:36;5.63;;;3.10;;
19016;SDS011;9641;51.494;6.670;2023-06-19T15:07:03;3.10;;;2.90;;
19016;SDS011;9641;51.494;6.670;2023-06-19T15:09:30;5.40;;;3.50;;